Time;durP1;ratioP1;P1;durP2;ratioP2;P2;SDS_P1;SDS_P2;PMS_P1;PMS_P2;Temp;Humidity;BMP_temperature;BMP_pressure;BME280_temperature;BME280_humidity;BME280_pressure;Samples;Min_cycle;Max_cycle;Signal;HPM_P1;HPM_P2
2022/10/21 00:02:45;;;;;;;11.00;7.10;;;;;;;;;;5042223;28;20522;-89
2022/10/21 00:05:50;;;;;;;11.93;7.27;;;;;;;;;;5042686;28;20183;-89
2022/10/21 00:08:54;;;;;;;9.27;7.47;;;;;;;;;;5042066;28;20180;-89
2022/10/21 00:11:58;;;;;;;16.03;7.67;;;;;;;;;;5053089;28;20183;-89
2022/10/21 00:15:05;;;;;;;9.83;7.90;;;;;;;;;;5065591;28;20171;-89
2022/10/21 00:18:09;;;;;;;14.67;7.83;;;;;;;;;;5042035;28;20619;-90
2022/10/21 00:21:18;;;;;;;10.03;7.20;;;;;;;;;;5040948;28;20215;-89
2022/10/21 00:24:22;;;;;;;11.90;7.67;;;;;;;;;;5041826;28;20211;-89
2022/10/21 00:27:26;;;;;;;11.00;7.57;;;;;;;;;;5065219;28;20507;-89
2022/10/21 00:30:30;;;;;;;13.57;7.90;;;;;;;;;;5041616;28;20211;-89
2022/10/21 00:33:35;;;;;;;10.30;8.00;;;;;;;;;;5041704;28;20195;-89
2022/10/21 00:36:39;;;;;;;12.60;7.80;;;;;;;;;;5052708;28;20649;-90
2022/10/21 00:39:44;;;;;;;11.83;7.70;;;;;;;;;;5052749;28;20180;-89
2022/10/21 00:42:48;;;;;;;10.63;7.83;;;;;;;;;;5052687;28;20184;-89
2022/10/21 00:45:57;;;;;;;11.63;8.17;;;;;;;;;;5041055;28;20627;-89
2022/10/21 00:49:06;;;;;;;11.27;8.57;;;;;;;;;;5040908;28;20179;-89
2022/10/21 00:52:20;;;;;;;11.13;7.70;;;;;;;;;;5040745;28;20184;-89
2022/10/21 00:55:28;;;;;;;11.43;8.20;;;;;;;;;;5052272;28;20180;-89
2022/10/21 00:58:33;;;;;;;13.43;8.97;;;;;;;;;;5041019;28;20195;-89
2022/10/21 01:01:37;;;;;;;13.47;8.30;;;;;;;;;;5040539;28;20219;-89
2022/10/21 01:04:42;;;;;;;13.90;8.37;;;;;;;;;;5064052;28;20211;-89
2022/10/21 01:07:48;;;;;;;12.47;8.67;;;;;;;;;;5052470;28;20183;-89
2022/10/21 01:10:52;;;;;;;13.40;9.27;;;;;;;;;;5051358;28;20219;-89
2022/10/21 01:14:21;;;;;;;12.27;9.17;;;;;;;;;;5040895;28;20171;-90
2022/10/21 01:17:40;;;;;;;10.43;8.47;;;;;;;;;;5040820;28;20179;-90
2022/10/21 01:21:20;;;;;;;13.97;9.47;;;;;;;;;;5062692;28;20207;-89
2022/10/21 01:25:00;;;;;;;17.17;9.27;;;;;;;;;;5040490;28;20211;-90
2022/10/21 01:28:23;;;;;;;11.83;8.73;;;;;;;;;;5040569;28;20175;-89
2022/10/21 01:31:42;;;;;;;12.70;9.37;;;;;;;;;;5040201;28;20219;-89
2022/10/21 01:34:59;;;;;;;12.20;8.97;;;;;;;;;;5051539;28;20531;-89
2022/10/21 01:38:26;;;;;;;11.67;9.23;;;;;;;;;;5039759;28;20524;-89
2022/10/21 01:41:41;;;;;;;14.57;8.87;;;;;;;;;;5063218;28;20219;-89
2022/10/21 01:45:07;;;;;;;11.47;8.57;;;;;;;;;;5051222;28;20199;-89
2022/10/21 01:48:17;;;;;;;13.70;9.93;;;;;;;;;;5051082;28;20176;-89
2022/10/21 01:51:25;;;;;;;13.40;9.23;;;;;;;;;;5039192;28;20215;-89
2022/10/21 01:54:40;;;;;;;14.70;9.63;;;;;;;;;;5051235;28;20191;-89
2022/10/21 01:57:51;;;;;;;12.10;10.20;;;;;;;;;;5040262;28;20524;-88
2022/10/21 02:00:58;;;;;;;12.90;9.13;;;;;;;;;;5062185;28;20227;-89
2022/10/21 02:04:04;;;;;;;11.03;9.60;;;;;;;;;;5051507;28;20212;-89
2022/10/21 02:07:09;;;;;;;16.30;10.60;;;;;;;;;;5062520;28;20179;-89
2022/10/21 02:10:13;;;;;;;13.97;10.03;;;;;;;;;;5039558;28;20234;-89
2022/10/21 02:13:25;;;;;;;16.70;10.83;;;;;;;;;;5050055;28;20202;-89
2022/10/21 02:16:34;;;;;;;13.57;10.57;;;;;;;;;;5050917;28;20637;-89
2022/10/21 02:19:38;;;;;;;19.87;10.87;;;;;;;;;;5039295;28;20185;-89
2022/10/21 02:22:45;;;;;;;15.03;10.50;;;;;;;;;;5050417;28;20190;-89
2022/10/21 02:25:50;;;;;;;13.77;10.83;;;;;;;;;;5062349;28;20250;-89
2022/10/21 02:28:56;;;;;;;12.63;10.17;;;;;;;;;;5039534;28;20190;-89
2022/10/21 02:32:21;;;;;;;14.50;11.53;;;;;;;;;;5040186;28;20187;-89
2022/10/21 02:35:59;;;;;;;14.63;10.13;;;;;;;;;;5039340;28;20178;-89
2022/10/21 02:39:14;;;;;;;14.97;10.30;;;;;;;;;;5070353;28;20554;-89
2022/10/21 02:42:24;;;;;;;13.67;11.03;;;;;;;;;;5078942;28;20191;-89
2022/10/21 02:45:28;;;;;;;17.53;11.67;;;;;;;;;;5064378;28;20210;-89
2022/10/21 02:48:35;;;;;;;17.23;12.73;;;;;;;;;;5053956;28;20210;-89
2022/10/21 02:51:40;;;;;;;14.33;11.00;;;;;;;;;;5042808;28;20218;-89
2022/10/21 02:54:45;;;;;;;15.60;11.77;;;;;;;;;;5043008;28;20178;-89
2022/10/21 02:57:49;;;;;;;15.03;12.00;;;;;;;;;;5042618;28;20656;-89
2022/10/21 03:00:53;;;;;;;17.43;11.57;;;;;;;;;;5065585;28;20222;-89
2022/10/21 03:03:57;;;;;;;16.13;10.93;;;;;;;;;;5055220;28;20589;-89
2022/10/21 03:07:01;;;;;;;17.43;11.03;;;;;;;;;;5042829;28;20562;-90
2022/10/21 03:10:05;;;;;;;15.33;10.70;;;;;;;;;;5079781;22;20712;-89
2022/10/21 03:13:10;;;;;;;17.40;12.30;;;;;;;;;;5084215;28;20209;-87
2022/10/21 03:16:14;;;;;;;13.83;11.23;;;;;;;;;;5073622;28;20544;-87
2022/10/21 03:19:18;;;;;;;16.43;11.53;;;;;;;;;;5084062;28;20186;-87
2022/10/21 03:22:22;;;;;;;14.30;11.43;;;;;;;;;;5064646;28;20214;-87
2022/10/21 03:25:26;;;;;;;13.93;11.13;;;;;;;;;;5063651;28;20214;-87
2022/10/21 03:28:31;;;;;;;15.63;11.23;;;;;;;;;;5064910;28;20186;-87
2022/10/21 03:31:35;;;;;;;16.17;12.13;;;;;;;;;;5064364;28;20696;-87
2022/10/21 03:34:39;;;;;;;15.50;11.47;;;;;;;;;;5044667;28;20187;-86
2022/10/21 03:37:43;;;;;;;17.47;12.20;;;;;;;;;;5056057;28;20191;-87
2022/10/21 03:40:49;;;;;;;14.73;12.27;;;;;;;;;;5044181;28;20223;-87
2022/10/21 03:43:53;;;;;;;17.47;12.37;;;;;;;;;;5044377;28;20645;-87
2022/10/21 03:46:57;;;;;;;19.70;12.77;;;;;;;;;;5055731;28;20191;-87
2022/10/21 03:50:02;;;;;;;15.87;12.27;;;;;;;;;;5032782;28;20191;-87
2022/10/21 03:53:06;;;;;;;18.97;13.07;;;;;;;;;;5044170;28;20255;-84
2022/10/21 03:56:11;;;;;;;17.23;12.50;;;;;;;;;;5044003;28;20211;-84
2022/10/21 03:59:15;;;;;;;15.10;12.63;;;;;;;;;;5067418;28;20661;-84
2022/10/21 04:02:19;;;;;;;15.30;11.13;;;;;;;;;;5032252;28;20215;-85
2022/10/21 04:05:23;;;;;;;16.43;11.93;;;;;;;;;;5032552;28;20235;-85
2022/10/21 04:08:27;;;;;;;23.53;11.70;;;;;;;;;;5043995;28;20670;-85
2022/10/21 04:11:32;;;;;;;20.07;12.53;;;;;;;;;;5043883;28;20239;-85
2022/10/21 04:14:36;;;;;;;17.67;12.70;;;;;;;;;;5032758;28;20199;-84
2022/10/21 04:17:40;;;;;;;16.10;12.47;;;;;;;;;;5032444;28;20566;-84
2022/10/21 04:20:44;;;;;;;16.47;12.67;;;;;;;;;;5043236;28;20226;-84
2022/10/21 04:23:48;;;;;;;16.90;12.70;;;;;;;;;;5043242;28;20203;-84
2022/10/21 04:26:52;;;;;;;17.23;12.63;;;;;;;;;;5043531;28;20199;-84
2022/10/21 04:29:56;;;;;;;14.80;11.60;;;;;;;;;;5032027;28;20187;-84
2022/10/21 04:33:00;;;;;;;14.77;11.70;;;;;;;;;;5032002;28;20203;-85
2022/10/21 04:36:05;;;;;;;18.47;12.50;;;;;;;;;;5043519;28;20179;-85
2022/10/21 04:39:09;;;;;;;15.83;12.03;;;;;;;;;;5054337;28;20653;-85
2022/10/21 04:42:13;;;;;;;17.33;12.27;;;;;;;;;;5031806;28;20227;-85
2022/10/21 04:45:17;;;;;;;15.10;12.07;;;;;;;;;;5031681;28;20218;-84
2022/10/21 04:48:21;;;;;;;20.93;12.17;;;;;;;;;;5031797;28;20183;-84
2022/10/21 04:51:25;;;;;;;20.63;12.13;;;;;;;;;;5031625;28;20219;-85
2022/10/21 04:54:29;;;;;;;18.27;12.37;;;;;;;;;;5043222;28;20179;-85
2022/10/21 04:57:34;;;;;;;19.07;13.20;;;;;;;;;;5031781;28;20192;-85
2022/10/21 05:00:38;;;;;;;19.93;11.90;;;;;;;;;;5054205;28;20227;-85
2022/10/21 05:03:42;;;;;;;16.40;11.67;;;;;;;;;;5031439;28;20183;-84
2022/10/21 05:06:46;;;;;;;18.10;12.80;;;;;;;;;;5030836;28;20176;-84
2022/10/21 05:09:50;;;;;;;20.27;13.73;;;;;;;;;;5031084;28;20211;-84
2022/10/21 05:13:05;;;;;;;20.43;13.53;;;;;;;;;;5065718;28;20668;-84
2022/10/21 05:16:08;;;;;;;22.03;13.63;;;;;;;;;;5031196;28;20195;-84
2022/10/21 05:19:13;;;;;;;15.50;12.03;;;;;;;;;;5030747;28;20187;-85
2022/10/21 05:22:17;;;;;;;21.53;12.87;;;;;;;;;;5042106;28;20222;-85
2022/10/21 05:25:21;;;;;;;17.67;12.50;;;;;;;;;;5030983;28;20219;-85
2022/10/21 05:28:25;;;;;;;17.67;13.40;;;;;;;;;;5042307;28;20187;-84
2022/10/21 05:31:29;;;;;;;16.23;12.37;;;;;;;;;;5041788;28;20708;-85
2022/10/21 05:34:34;;;;;;;17.93;11.97;;;;;;;;;;5042281;28;20251;-85
2022/10/21 05:37:38;;;;;;;16.07;12.07;;;;;;;;;;5039786;28;20202;-84
2022/10/21 05:40:42;;;;;;;15.70;11.73;;;;;;;;;;5053230;28;20219;-85
2022/10/21 05:43:47;;;;;;;14.20;11.97;;;;;;;;;;5042014;28;20203;-85
2022/10/21 05:46:51;;;;;;;15.80;11.53;;;;;;;;;;5053192;28;20263;-86
2022/10/21 05:49:55;;;;;;;17.50;11.40;;;;;;;;;;5064684;28;20207;-86
2022/10/21 05:52:59;;;;;;;18.80;13.23;;;;;;;;;;5053108;28;20207;-86
2022/10/21 05:56:06;;;;;;;20.07;12.83;;;;;;;;;;5064657;28;20187;-86
2022/10/21 05:59:10;;;;;;;15.67;11.87;;;;;;;;;;5039979;28;20211;-86
2022/10/21 06:02:14;;;;;;;14.97;11.83;;;;;;;;;;5041638;28;20708;-85
2022/10/21 06:05:20;;;;;;;21.27;14.50;;;;;;;;;;5053063;28;20227;-85
2022/10/21 06:08:25;;;;;;;23.50;15.70;;;;;;;;;;5053021;28;20206;-85
2022/10/21 06:11:29;;;;;;;26.00;17.40;;;;;;;;;;5052900;28;20570;-86
2022/10/21 06:14:36;;;;;;;19.00;14.27;;;;;;;;;;5064608;28;20183;-86
2022/10/21 06:17:40;;;;;;;17.23;12.90;;;;;;;;;;5064361;28;20665;-85
2022/10/21 06:20:44;;;;;;;24.40;14.50;;;;;;;;;;5052757;28;20234;-85
2022/10/21 06:23:52;;;;;;;22.33;13.30;;;;;;;;;;5053129;28;20187;-86
2022/10/21 06:26:56;;;;;;;22.63;13.30;;;;;;;;;;5053004;28;20717;-85
2022/10/21 06:30:01;;;;;;;17.57;13.60;;;;;;;;;;5052375;28;20203;-85
2022/10/21 06:33:05;;;;;;;20.53;13.93;;;;;;;;;;5052789;28;20203;-85
2022/10/21 06:36:09;;;;;;;20.87;13.77;;;;;;;;;;5041274;28;20642;-85
2022/10/21 06:39:13;;;;;;;18.83;12.97;;;;;;;;;;5052682;28;20183;-86
2022/10/21 06:42:17;;;;;;;22.30;13.40;;;;;;;;;;5052568;28;20215;-86
2022/10/21 06:45:24;;;;;;;19.60;13.80;;;;;;;;;;5041267;28;20215;-86
2022/10/21 06:48:29;;;;;;;19.57;13.50;;;;;;;;;;5052661;28;20657;-85
2022/10/21 06:51:33;;;;;;;17.77;12.53;;;;;;;;;;5052536;28;20226;-85
2022/10/21 06:54:37;;;;;;;16.40;13.10;;;;;;;;;;5052817;28;20534;-86
2022/10/21 06:57:41;;;;;;;16.20;13.37;;;;;;;;;;5052526;28;20191;-85
2022/10/21 07:00:45;;;;;;;16.57;12.10;;;;;;;;;;5052445;28;20700;-85
2022/10/21 07:03:49;;;;;;;19.70;13.90;;;;;;;;;;5052298;28;20187;-85
2022/10/21 07:06:53;;;;;;;20.70;13.53;;;;;;;;;;5040815;28;20211;-86
2022/10/21 07:09:57;;;;;;;17.40;13.67;;;;;;;;;;5052426;28;20203;-85
2022/10/21 07:13:01;;;;;;;15.77;12.53;;;;;;;;;;5052654;28;20184;-85
2022/10/21 07:16:11;;;;;;;17.53;12.93;;;;;;;;;;5052340;28;20638;-86
2022/10/21 07:19:15;;;;;;;18.13;13.00;;;;;;;;;;5052295;28;20192;-86
2022/10/21 07:22:19;;;;;;;19.17;13.63;;;;;;;;;;5052059;28;20223;-86
2022/10/21 07:25:23;;;;;;;17.10;13.13;;;;;;;;;;5052579;28;20234;-86
2022/10/21 07:28:27;;;;;;;18.40;12.97;;;;;;;;;;5052274;28;20192;-86
2022/10/21 07:31:34;;;;;;;15.87;11.67;;;;;;;;;;5042775;28;20226;-86
2022/10/21 07:34:38;;;;;;;17.27;13.17;;;;;;;;;;5055895;28;20203;-86
2022/10/21 07:37:42;;;;;;;19.13;12.30;;;;;;;;;;5055475;28;20199;-86
2022/10/21 07:40:46;;;;;;;15.53;12.20;;;;;;;;;;5055725;28;20226;-86
2022/10/21 07:43:51;;;;;;;19.93;11.10;;;;;;;;;;5044500;28;20539;-86
2022/10/21 07:46:55;;;;;;;17.17;12.10;;;;;;;;;;5055810;28;20227;-86
2022/10/21 07:49:59;;;;;;;19.53;11.03;;;;;;;;;;5055767;28;20183;-86
2022/10/21 07:53:04;;;;;;;14.97;11.47;;;;;;;;;;5055419;28;20187;-86
2022/10/21 07:56:14;;;;;;;13.77;10.73;;;;;;;;;;5044067;28;20203;-86
2022/10/21 07:59:20;;;;;;;15.67;11.33;;;;;;;;;;5055435;28;20193;-86
2022/10/21 08:02:24;;;;;;;14.33;10.80;;;;;;;;;;5055142;28;20223;-86
2022/10/21 08:05:28;;;;;;;16.23;11.63;;;;;;;;;;5055592;28;20215;-86
2022/10/21 08:08:32;;;;;;;15.67;10.33;;;;;;;;;;5054908;28;20195;-86
2022/10/21 08:11:37;;;;;;;13.33;11.23;;;;;;;;;;5043844;28;20235;-87
2022/10/21 08:14:41;;;;;;;14.30;10.63;;;;;;;;;;5043717;28;20211;-89
2022/10/21 08:17:45;;;;;;;17.73;9.97;;;;;;;;;;5072251;28;20570;-87
2022/10/21 08:20:49;;;;;;;13.10;9.07;;;;;;;;;;5052094;28;20211;-87
2022/10/21 08:23:54;;;;;;;13.93;9.83;;;;;;;;;;5063292;28;20171;-87
2022/10/21 08:26:58;;;;;;;13.23;10.07;;;;;;;;;;5075054;28;20207;-87
2022/10/21 08:30:02;;;;;;;17.17;9.53;;;;;;;;;;5063722;28;20182;-87
2022/10/21 08:33:07;;;;;;;17.27;9.40;;;;;;;;;;5075313;28;20172;-87
2022/10/21 08:36:17;;;;;;;11.73;8.63;;;;;;;;;;5063238;28;20175;-87
2022/10/21 08:39:23;;;;;;;14.90;9.23;;;;;;;;;;5051920;28;20187;-87
2022/10/21 08:42:28;;;;;;;13.63;9.73;;;;;;;;;;5050722;28;20179;-87
2022/10/21 08:45:44;;;;;;;14.43;9.60;;;;;;;;;;5051942;28;20176;-87
2022/10/21 08:48:55;;;;;;;13.20;9.47;;;;;;;;;;5051654;28;20625;-87
2022/10/21 08:52:04;;;;;;;17.70;9.20;;;;;;;;;;5074577;28;20216;-87
2022/10/21 08:55:27;;;;;;;11.07;8.83;;;;;;;;;;5062843;28;20195;-87
2022/10/21 08:58:31;;;;;;;11.87;8.47;;;;;;;;;;5063410;28;20176;-87
2022/10/21 09:02:21;;;;;;;12.23;7.93;;;;;;;;;;5051116;28;20223;-90
2022/10/21 09:05:46;;;;;;;15.33;7.90;;;;;;;;;;5043263;28;20181;-89
2022/10/21 09:09:06;;;;;;;10.93;7.90;;;;;;;;;;5031592;28;20180;-89
2022/10/21 09:12:27;;;;;;;13.63;8.10;;;;;;;;;;5031145;28;20625;-90
2022/10/21 09:15:44;;;;;;;45.10;18.10;;;;;;;;;;5042706;28;20177;-89
2022/10/21 09:19:18;;;;;;;16.77;8.37;;;;;;;;;;5042611;28;20183;-89
2022/10/21 09:22:39;;;;;;;10.80;8.73;;;;;;;;;;5053282;28;20559;-89
2022/10/21 09:25:58;;;;;;;10.07;8.90;;;;;;;;;;5042405;28;20180;-89
2022/10/21 09:29:22;;;;;;;10.33;8.97;;;;;;;;;;5031204;28;20181;-89
2022/10/21 09:32:33;;;;;;;17.93;9.93;;;;;;;;;;5030728;28;20223;-89
2022/10/21 09:35:48;;;;;;;14.13;10.00;;;;;;;;;;5042464;28;20653;-89
2022/10/21 09:38:57;;;;;;;10.93;8.70;;;;;;;;;;5030957;28;20195;-89
2022/10/21 09:42:01;;;;;;;13.43;9.50;;;;;;;;;;5053719;28;20211;-89
2022/10/21 09:45:11;;;;;;;13.10;10.30;;;;;;;;;;5042160;28;20180;-89
2022/10/21 09:48:18;;;;;;;14.07;10.27;;;;;;;;;;5030927;28;20646;-89
2022/10/21 09:51:31;;;;;;;13.87;9.67;;;;;;;;;;5031617;28;20226;-89
2022/10/21 09:54:39;;;;;;;12.47;9.53;;;;;;;;;;5042063;28;20172;-89
2022/10/21 09:57:52;;;;;;;13.80;9.37;;;;;;;;;;5041753;28;20176;-89
2022/10/21 10:00:57;;;;;;;12.67;9.33;;;;;;;;;;5041819;28;20216;-89
2022/10/21 10:04:29;;;;;;;11.97;8.47;;;;;;;;;;5041474;28;20623;-89
2022/10/21 10:07:35;;;;;;;9.47;7.77;;;;;;;;;;5045831;28;20215;-89
2022/10/21 10:10:38;;;;;;;15.10;8.97;;;;;;;;;;5061454;28;20215;-89
2022/10/21 10:13:46;;;;;;;12.80;8.30;;;;;;;;;;5061525;28;20195;-89
2022/10/21 10:16:50;;;;;;;13.83;8.20;;;;;;;;;;5061824;28;20183;-90
2022/10/21 10:20:04;;;;;;;11.70;7.90;;;;;;;;;;5061482;28;20207;-89
2022/10/21 10:23:17;;;;;;;10.47;7.63;;;;;;;;;;5050925;28;20199;-89
2022/10/21 10:26:27;;;;;;;11.70;7.53;;;;;;;;;;5056560;28;20207;-89
2022/10/21 10:29:33;;;;;;;11.20;7.30;;;;;;;;;;5050045;28;20183;-89
2022/10/21 10:32:37;;;;;;;14.80;8.13;;;;;;;;;;5050380;28;20180;-90
2022/10/21 10:35:59;;;;;;;9.83;6.83;;;;;;;;;;5049304;28;20661;-88
2022/10/21 10:39:18;;;;;;;10.23;7.67;;;;;;;;;;5061356;28;20188;-89
2022/10/21 10:42:27;;;;;;;12.50;7.93;;;;;;;;;;5072897;28;20219;-89
2022/10/21 10:45:31;;;;;;;12.37;8.07;;;;;;;;;;5061504;28;20180;-89
2022/10/21 10:48:38;;;;;;;12.03;7.27;;;;;;;;;;5060880;28;20527;-88
2022/10/21 10:51:46;;;;;;;10.17;8.00;;;;;;;;;;5049516;28;20215;-88
2022/10/21 10:55:10;;;;;;;11.30;7.90;;;;;;;;;;5072817;28;20179;-89
2022/10/21 10:58:15;;;;;;;9.83;8.00;;;;;;;;;;5061213;28;20180;-89
2022/10/21 11:01:48;;;;;;;14.70;7.57;;;;;;;;;;5072509;28;20215;-89
2022/10/21 11:05:36;;;;;;;14.40;7.70;;;;;;;;;;5072608;28;20520;-88
2022/10/21 11:08:44;;;;;;;9.10;7.40;;;;;;;;;;5076468;28;20187;-88
2022/10/21 11:11:53;;;;;;;13.10;7.90;;;;;;;;;;5064658;28;20215;-88
2022/10/21 11:14:58;;;;;;;10.00;7.60;;;;;;;;;;5076106;28;20203;-88
2022/10/21 11:18:34;;;;;;;8.00;7.17;;;;;;;;;;5076364;28;20511;-89
2022/10/21 11:21:45;;;;;;;10.30;6.47;;;;;;;;;;5064724;28;20219;-89
2022/10/21 11:24:52;;;;;;;12.50;7.17;;;;;;;;;;5064365;28;20195;-89
2022/10/21 11:28:21;;;;;;;8.77;7.03;;;;;;;;;;5064802;28;20219;-89
2022/10/21 11:31:50;;;;;;;10.00;7.10;;;;;;;;;;5075996;28;20219;-89
2022/10/21 11:35:05;;;;;;;10.90;8.13;;;;;;;;;;5064623;28;20179;-89
2022/10/21 11:38:31;;;;;;;12.47;8.27;;;;;;;;;;5076123;28;20172;-88
2022/10/21 11:41:41;;;;;;;14.03;9.43;;;;;;;;;;5064843;28;20219;-89
2022/10/21 11:44:54;;;;;;;14.53;9.73;;;;;;;;;;5075507;28;20172;-89
2022/10/21 11:48:46;;;;;;;11.90;9.50;;;;;;;;;;5064176;28;20681;-89
2022/10/21 11:51:59;;;;;;;13.47;9.90;;;;;;;;;;5045650;28;20215;-88
2022/10/21 11:55:30;;;;;;;15.27;10.07;;;;;;;;;;5064218;28;20180;-89
2022/10/21 11:58:34;;;;;;;13.27;9.97;;;;;;;;;;5063994;28;20182;-88
2022/10/21 12:02:11;;;;;;;12.20;10.10;;;;;;;;;;5052556;28;20214;-88
2022/10/21 12:05:45;;;;;;;16.90;10.27;;;;;;;;;;5075704;28;20529;-88
2022/10/21 12:08:59;;;;;;;11.53;9.33;;;;;;;;;;5063613;28;20179;-88
2022/10/21 12:12:25;;;;;;;13.60;10.13;;;;;;;;;;5064096;28;20223;-89
2022/10/21 12:15:37;;;;;;;17.20;9.77;;;;;;;;;;5052329;28;20665;-88
2022/10/21 12:18:47;;;;;;;10.73;8.77;;;;;;;;;;5075101;28;20167;-89
2022/10/21 12:21:51;;;;;;;11.03;8.37;;;;;;;;;;5075237;28;20235;-89
2022/10/21 12:25:11;;;;;;;11.90;8.23;;;;;;;;;;5063542;28;20571;-88
2022/10/21 12:28:47;;;;;;;13.00;8.43;;;;;;;;;;5063437;28;20208;-89
2022/10/21 12:32:03;;;;;;;9.53;7.97;;;;;;;;;;5075481;28;20219;-89
2022/10/21 12:35:12;;;;;;;13.17;7.73;;;;;;;;;;5063266;28;20184;-88
2022/10/21 12:38:23;;;;;;;12.97;8.70;;;;;;;;;;5075046;28;20546;-89
2022/10/21 12:41:33;;;;;;;12.30;8.77;;;;;;;;;;5074630;28;20215;-88
2022/10/21 12:47:44;;;;;;;15.57;8.43;;;;;;;;;;5082357;28;20235;-83
2022/10/21 12:51:06;;;;;;;14.70;7.10;;;;;;;;;;5031847;28;20217;-84
2022/10/21 12:54:14;;;;;;;12.63;6.97;;;;;;;;;;5011263;28;20185;-83
2022/10/21 12:57:39;;;;;;;7.30;6.47;;;;;;;;;;5026146;28;20188;-82
2022/10/21 13:00:42;;;;;;;15.13;10.53;;;;;;;;;;5002296;28;20221;-82
2022/10/21 13:03:51;;;;;;;13.10;7.00;;;;;;;;;;5006364;28;20188;-84
2022/10/21 13:07:00;;;;;;;14.83;6.23;;;;;;;;;;5013545;28;20216;-84
2022/10/21 13:10:07;;;;;;;8.37;4.33;;;;;;;;;;5036304;28;20181;-83
2022/10/21 13:13:34;;;;;;;9.10;4.63;;;;;;;;;;5026346;28;20631;-82
2022/10/21 13:16:40;;;;;;;10.90;4.17;;;;;;;;;;5024417;28;20200;-82
2022/10/21 13:19:44;;;;;;;6.87;4.60;;;;;;;;;;5022597;28;20185;-82
2022/10/21 13:23:02;;;;;;;8.53;4.03;;;;;;;;;;5021011;28;20181;-82
2022/10/21 13:26:17;;;;;;;6.07;3.90;;;;;;;;;;5009631;28;20185;-83
2022/10/21 13:29:25;;;;;;;8.90;3.73;;;;;;;;;;5030561;28;20169;-83
2022/10/21 13:32:38;;;;;;;14.63;3.87;;;;;;;;;;5019131;28;20580;-82
2022/10/21 13:35:49;;;;;;;6.67;3.70;;;;;;;;;;5019857;28;20517;-82
2022/10/21 13:38:57;;;;;;;10.27;3.63;;;;;;;;;;5021478;28;20185;-83
2022/10/21 13:42:14;;;;;;;12.50;3.87;;;;;;;;;;5009932;28;20212;-82
2022/10/21 13:45:45;;;;;;;4.63;4.23;;;;;;;;;;5010202;28;20601;-82
2022/10/21 13:49:00;;;;;;;6.67;4.00;;;;;;;;;;5010582;28;20591;-83
2022/10/21 13:52:09;;;;;;;8.17;4.23;;;;;;;;;;5021406;28;20261;-82
2022/10/21 13:55:24;;;;;;;7.27;4.60;;;;;;;;;;5022050;28;20632;-82
2022/10/21 13:58:34;;;;;;;12.53;4.93;;;;;;;;;;5010907;28;20177;-82
2022/10/21 14:01:51;;;;;;;6.97;4.23;;;;;;;;;;5034935;28;20216;-83
2022/10/21 14:04:56;;;;;;;15.27;8.50;;;;;;;;;;5011412;28;20185;-82
2022/10/21 14:08:01;;;;;;;8.87;4.90;;;;;;;;;;5022420;28;20220;-82
2022/10/21 14:11:15;;;;;;;9.47;4.67;;;;;;;;;;5010405;28;20723;-82
2022/10/21 14:14:22;;;;;;;10.87;8.60;;;;;;;;;;5019140;28;20181;-82
2022/10/21 14:17:27;;;;;;;8.20;6.67;;;;;;;;;;5010743;28;20173;-83
2022/10/21 14:20:36;;;;;;;9.00;5.90;;;;;;;;;;5021037;28;20185;-83
2022/10/21 14:23:43;;;;;;;9.10;5.70;;;;;;;;;;5019948;28;20197;-83
2022/10/21 14:26:48;;;;;;;11.57;4.80;;;;;;;;;;5010618;28;20639;-82
2022/10/21 14:29:54;;;;;;;15.10;5.50;;;;;;;;;;5022119;28;20173;-82
2022/10/21 14:33:02;;;;;;;13.20;5.50;;;;;;;;;;5031129;28;20184;-82
2022/10/21 14:36:14;;;;;;;8.90;5.23;;;;;;;;;;5020821;28;20181;-83
2022/10/21 14:39:19;;;;;;;10.20;5.70;;;;;;;;;;5001026;28;20182;-82
2022/10/21 14:42:24;;;;;;;6.10;4.77;;;;;;;;;;4999477;28;20699;-82
2022/10/21 14:45:32;;;;;;;11.63;5.40;;;;;;;;;;4993223;28;20182;-82
2022/10/21 14:48:42;;;;;;;8.40;5.67;;;;;;;;;;5015466;28;20209;-83
2022/10/21 14:51:47;;;;;;;7.43;5.30;;;;;;;;;;5015165;28;20217;-80
2022/10/21 14:54:55;;;;;;;10.97;4.73;;;;;;;;;;5014124;28;20177;-82
2022/10/21 14:58:09;;;;;;;7.37;5.23;;;;;;;;;;5014814;28;20186;-82
2022/10/21 15:01:17;;;;;;;8.70;4.50;;;;;;;;;;5004345;28;20221;-82
2022/10/21 15:04:51;;;;;;;11.73;5.00;;;;;;;;;;4994477;28;20197;-82
2022/10/21 15:08:27;;;;;;;10.50;4.73;;;;;;;;;;5005839;28;20679;-82
2022/10/21 15:11:43;;;;;;;6.90;4.30;;;;;;;;;;5005279;28;20221;-82
2022/10/21 15:14:47;;;;;;;6.17;4.00;;;;;;;;;;4995547;28;20177;-82
2022/10/21 15:17:59;;;;;;;6.07;3.50;;;;;;;;;;5018013;28;20174;-82
2022/10/21 15:21:12;;;;;;;7.23;3.80;;;;;;;;;;5007026;28;20217;-83
2022/10/21 15:24:23;;;;;;;7.97;3.60;;;;;;;;;;5006044;28;20182;-82
2022/10/21 15:27:38;;;;;;;5.30;3.87;;;;;;;;;;5017599;28;20189;-82
2022/10/21 15:30:43;;;;;;;6.93;3.63;;;;;;;;;;5007467;28;20213;-83
2022/10/21 15:33:51;;;;;;;5.90;3.20;;;;;;;;;;5002568;28;20185;-82
2022/10/21 15:36:55;;;;;;;11.23;4.63;;;;;;;;;;5009795;28;20202;-83
2022/10/21 15:39:59;;;;;;;9.00;3.70;;;;;;;;;;5013170;28;20201;-82
2022/10/21 15:43:04;;;;;;;4.90;3.37;;;;;;;;;;4999418;28;20186;-82
2022/10/21 15:46:08;;;;;;;9.73;3.13;;;;;;;;;;4998063;28;20208;-83
2022/10/21 15:49:16;;;;;;;5.60;2.60;;;;;;;;;;5007759;28;20220;-84
2022/10/21 15:52:20;;;;;;;5.30;3.10;;;;;;;;;;4998902;28;20213;-84
2022/10/21 15:55:24;;;;;;;5.40;2.93;;;;;;;;;;4988855;28;20186;-82
2022/10/21 15:58:30;;;;;;;9.20;2.90;;;;;;;;;;5000216;28;20181;-83
2022/10/21 16:01:35;;;;;;;3.43;2.53;;;;;;;;;;5012074;28;20217;-83
2022/10/21 16:04:40;;;;;;;5.73;2.40;;;;;;;;;;4989286;28;20178;-83
2022/10/21 16:07:45;;;;;;;6.60;2.50;;;;;;;;;;4999341;28;20174;-82
2022/10/21 16:26:33;;;;;;;10.40;3.67;;;;;;;;;;4999482;28;20202;-83
2022/10/21 16:29:38;;;;;;;4.53;3.30;;;;;;;;;;5009271;28;20548;-83
2022/10/21 16:32:42;;;;;;;5.07;3.50;;;;;;;;;;5009115;28;20189;-83
2022/10/21 16:35:47;;;;;;;5.83;3.43;;;;;;;;;;5022222;28;20186;-83
2022/10/21 16:38:52;;;;;;;7.40;3.70;;;;;;;;;;5021577;28;20181;-83
2022/10/21 16:41:56;;;;;;;9.90;4.20;;;;;;;;;;4997392;28;20221;-82
2022/10/21 16:45:00;;;;;;;6.40;4.00;;;;;;;;;;5022481;28;20185;-83
2022/10/21 16:47:55;;;;;;;6.53;4.10;;;;;;;;;;5135983;27;20878;-84
2022/10/21 16:50:59;;;;;;;11.07;3.20;;;;;;;;;;5118050;28;20213;-83
2022/10/21 16:54:04;;;;;;;7.40;4.10;;;;;;;;;;5117838;28;20194;-83
2022/10/21 16:57:08;;;;;;;8.03;3.73;;;;;;;;;;5118207;28;20194;-83
2022/10/21 17:00:13;;;;;;;8.30;3.83;;;;;;;;;;5130548;28;20201;-81
2022/10/21 17:03:18;;;;;;;7.63;3.87;;;;;;;;;;5134586;28;20154;-80
2022/10/21 17:06:24;;;;;;;8.57;4.00;;;;;;;;;;5123290;28;20201;-80
2022/10/21 17:09:29;;;;;;;9.43;3.33;;;;;;;;;;5124084;28;20617;-83
2022/10/21 17:12:34;;;;;;;7.67;3.33;;;;;;;;;;5099034;28;20210;-79
2022/10/21 17:15:38;;;;;;;6.00;3.37;;;;;;;;;;5122358;28;20175;-78
2022/10/21 17:18:43;;;;;;;6.20;3.40;;;;;;;;;;5127880;28;20175;-83
2022/10/21 17:21:48;;;;;;;6.20;3.33;;;;;;;;;;5117629;28;20209;-83
2022/10/21 17:24:52;;;;;;;6.53;2.80;;;;;;;;;;5116508;28;20179;-84
2022/10/21 17:27:57;;;;;;;4.20;2.90;;;;;;;;;;5114978;28;20198;-85
2022/10/21 17:31:01;;;;;;;4.70;3.00;;;;;;;;;;5125079;28;20210;-83
2022/10/21 17:34:07;;;;;;;6.00;2.70;;;;;;;;;;5124568;28;20363;-84
2022/10/21 17:37:11;;;;;;;6.63;2.70;;;;;;;;;;5124498;28;20171;-84
2022/10/21 17:40:23;;;;;;;6.90;2.50;;;;;;;;;;5100677;28;20182;-84
2022/10/21 17:43:28;;;;;;;6.70;3.07;;;;;;;;;;5111285;28;20182;-84
2022/10/21 17:46:32;;;;;;;3.73;2.03;;;;;;;;;;5113775;28;20217;-85
2022/10/21 17:49:37;;;;;;;5.13;2.50;;;;;;;;;;5111097;28;20178;-83
2022/10/21 17:52:42;;;;;;;6.07;2.47;;;;;;;;;;5114447;28;20201;-82
2022/10/21 17:56:00;;;;;;;5.23;2.20;;;;;;;;;;5116780;28;20202;-82
2022/10/21 17:59:04;;;;;;;4.23;2.53;;;;;;;;;;5107444;28;20167;-84
2022/10/21 18:02:09;;;;;;;8.20;2.53;;;;;;;;;;5093719;28;20210;-84
2022/10/21 18:05:13;;;;;;;4.40;2.20;;;;;;;;;;5104210;28;20179;-83
2022/10/21 18:08:18;;;;;;;6.67;2.50;;;;;;;;;;5103924;28;20685;-83
2022/10/21 18:11:22;;;;;;;6.17;2.30;;;;;;;;;;5103038;28;20214;-81
2022/10/21 18:14:26;;;;;;;3.40;2.23;;;;;;;;;;5103912;28;20171;-82
2022/10/21 18:17:32;;;;;;;5.50;2.27;;;;;;;;;;5104808;28;20167;-84
2022/10/21 18:20:37;;;;;;;4.53;1.93;;;;;;;;;;5104366;28;20215;-84
2022/10/21 18:23:44;;;;;;;3.87;2.40;;;;;;;;;;5092638;28;20175;-84
2022/10/21 18:26:48;;;;;;;2.70;2.00;;;;;;;;;;5103487;28;20202;-84
2022/10/21 18:29:52;;;;;;;4.73;2.00;;;;;;;;;;5092806;28;20171;-82
2022/10/21 18:32:57;;;;;;;5.47;1.97;;;;;;;;;;5105144;28;20178;-84
2022/10/21 18:36:06;;;;;;;3.33;1.83;;;;;;;;;;5104259;28;20179;-82
2022/10/21 18:39:11;;;;;;;3.85;1.90;;;;;;;;;;5088621;28;20693;-82
2022/10/21 18:42:17;;;;;;;8.87;2.00;;;;;;;;;;5100768;28;20624;-82
2022/10/21 18:45:21;;;;;;;4.23;1.63;;;;;;;;;;5102585;28;20174;-82
2022/10/21 18:48:25;;;;;;;4.25;1.70;;;;;;;;;;5104668;28;20674;-83
2022/10/21 18:51:30;;;;;;;6.80;1.73;;;;;;;;;;5090502;28;20214;-83
2022/10/21 18:54:34;;;;;;;4.27;1.70;;;;;;;;;;5103273;28;20175;-83